Time;durP1;ratioP1;P1;durP2;ratioP2;P2;SDS_P1;SDS_P2;PMS_P1;PMS_P2;Temp;Humidity;BMP_temperature;BMP_pressure;BME280_temperature;BME280_humidity;BME280_pressure;Samples;Min_cycle;Max_cycle;Signal;HPM_P1;HPM_P2
2022/08/24 00:01:58;;;;;;;41.90;31.70;;;;;;;18.81;100.00;98049.06;105515;1282;22528;-90
2022/08/24 00:04:27;;;;;;;38.20;29.60;;;;;;;18.75;100.00;98051.78;105559;1282;22606;-89
2022/08/24 00:07:00;;;;;;;37.30;31.40;;;;;;;18.75;100.00;98050.60;105550;1282;22607;-91
2022/08/24 00:09:29;;;;;;;38.60;30.80;;;;;;;18.74;100.00;98045.04;105598;1282;22705;-91
2022/08/24 00:11:57;;;;;;;47.00;30.90;;;;;;;18.72;100.00;98038.66;105625;1282;22565;-92
2022/08/24 00:14:26;;;;;;;38.60;32.80;;;;;;;18.73;100.00;98039.07;105540;1282;22553;-91
2022/08/24 00:16:54;;;;;;;36.70;31.40;;;;;;;18.73;100.00;98038.06;105475;1282;24206;-89
2022/08/24 00:19:26;;;;;;;33.50;29.80;;;;;;;18.71;100.00;98033.96;105582;1282;22534;-90
2022/08/24 00:21:54;;;;;;;38.90;30.90;;;;;;;18.71;100.00;98034.48;105656;1282;22565;-89
2022/08/24 00:24:22;;;;;;;34.70;31.00;;;;;;;18.71;100.00;98031.98;105557;1282;25414;-91
2022/08/24 00:26:52;;;;;;;39.20;30.50;;;;;;;18.68;100.00;98031.20;105514;1281;22536;-91
2022/08/24 00:29:22;;;;;;;36.90;28.30;;;;;;;18.67;100.00;98028.84;105763;1282;22790;-92
2022/08/24 00:31:50;;;;;;;45.30;32.00;;;;;;;18.68;100.00;98031.45;105759;1282;22581;-90
2022/08/24 00:34:18;;;;;;;37.10;29.60;;;;;;;18.67;100.00;98034.29;105679;1282;24332;-91
2022/08/24 00:36:47;;;;;;;37.80;30.30;;;;;;;18.67;100.00;98030.25;105505;1282;22570;-92
2022/08/24 00:39:15;;;;;;;45.50;32.10;;;;;;;18.67;100.00;98028.34;105542;1282;22610;-91
2022/08/24 00:41:46;;;;;;;38.80;32.40;;;;;;;18.65;100.00;98027.15;105528;1281;22594;-91
2022/08/24 00:44:15;;;;;;;35.90;30.20;;;;;;;18.61;100.00;98021.84;105551;1282;25366;-90
2022/08/24 00:46:49;;;;;;;41.80;32.30;;;;;;;18.58;100.00;98022.60;105441;1282;25201;-91
2022/08/24 00:50:03;;;;;;;34.30;30.40;;;;;;;18.55;100.00;98023.45;105499;1282;22562;-91
2022/08/24 00:52:45;;;;;;;37.50;30.20;;;;;;;18.53;100.00;98030.27;104875;1290;22815;-91
2022/08/24 00:55:42;;;;;;;37.90;31.80;;;;;;;18.53;100.00;98031.43;104921;1289;24549;-92
2022/08/24 00:58:21;;;;;;;37.00;32.10;;;;;;;18.53;100.00;98031.99;104882;1290;24232;-93
2022/08/24 01:00:56;;;;;;;42.20;33.90;;;;;;;18.51;100.00;98039.95;104905;1291;22611;-88
2022/08/24 01:03:26;;;;;;;47.40;31.30;;;;;;;18.51;100.00;98040.66;104823;1291;25266;-89
2022/08/24 01:05:55;;;;;;;40.00;32.80;;;;;;;18.50;100.00;98042.66;104861;1291;22890;-88
2022/08/24 01:08:23;;;;;;;42.50;35.20;;;;;;;18.49;100.00;98044.89;104601;1290;22673;-90
2022/08/24 01:10:57;;;;;;;46.40;34.70;;;;;;;18.47;100.00;98043.95;104822;1290;22801;-87
2022/08/24 01:13:26;;;;;;;46.70;36.90;;;;;;;18.48;100.00;98045.33;105220;1290;22549;-92
2022/08/24 01:16:03;;;;;;;48.70;34.70;;;;;;;18.45;100.00;98050.17;106364;1290;23392;-91
2022/08/24 01:18:50;;;;;;;51.70;37.60;;;;;;;18.44;100.00;98054.65;106363;1290;23097;-93
2022/08/24 01:21:23;;;;;;;43.70;34.80;;;;;;;18.43;100.00;98056.63;106309;1290;22631;-89
2022/08/24 01:23:58;;;;;;;56.90;38.70;;;;;;;18.43;100.00;98057.41;105337;1291;25545;-90
2022/08/24 01:26:42;;;;;;;54.40;40.50;;;;;;;18.43;100.00;98057.50;106158;1282;22593;-89
2022/08/24 01:29:19;;;;;;;53.30;39.40;;;;;;;18.42;100.00;98062.61;107857;1282;22568;-89
2022/08/24 01:31:52;;;;;;;54.00;39.90;;;;;;;18.43;100.00;98062.25;108407;1281;22667;-87
2022/08/24 01:34:20;;;;;;;46.80;37.10;;;;;;;18.44;100.00;98061.72;108095;1282;22565;-88
2022/08/24 01:36:54;;;;;;;68.90;44.10;;;;;;;18.47;100.00;98062.52;106506;1282;25408;-88
2022/08/24 01:39:27;;;;;;;64.30;42.60;;;;;;;18.44;100.00;98058.86;108759;1281;22688;-87
2022/08/24 01:41:56;;;;;;;62.00;45.60;;;;;;;18.45;100.00;98057.39;108573;1282;22491;-85
2022/08/24 01:44:28;;;;;;;68.10;44.80;;;;;;;18.43;100.00;98052.52;108215;1282;25286;-90
2022/08/24 01:46:56;;;;;;;58.80;44.20;;;;;;;18.44;100.00;98051.77;107858;1282;22622;-90
2022/08/24 01:49:29;;;;;;;57.30;43.90;;;;;;;18.42;100.00;98044.99;107786;1282;23166;-91
2022/08/24 01:51:59;;;;;;;58.90;42.90;;;;;;;18.44;100.00;98044.64;107819;1282;22559;-91
2022/08/24 01:54:27;;;;;;;56.50;43.40;;;;;;;18.42;100.00;98051.48;107095;1282;25363;-89
2022/08/24 01:56:56;;;;;;;61.40;46.30;;;;;;;18.39;100.00;98052.17;105673;1282;25347;-90
2022/08/24 01:59:24;;;;;;;63.70;45.10;;;;;;;18.38;100.00;98054.71;105479;1282;22576;-87
2022/08/24 02:01:57;;;;;;;56.70;41.90;;;;;;;18.37;100.00;98055.60;105406;1282;22894;-89
2022/08/24 02:04:25;;;;;;;56.90;43.40;;;;;;;18.34;100.00;98056.61;105700;1281;27854;-91
2022/08/24 02:06:55;;;;;;;55.90;43.70;;;;;;;18.32;100.00;98057.13;105471;1282;22769;-91
2022/08/24 02:09:23;;;;;;;59.70;43.50;;;;;;;18.32;100.00;98060.40;105473;1282;22766;-92
2022/08/24 02:11:59;;;;;;;56.70;41.00;;;;;;;18.34;100.00;98052.81;105566;1282;22653;-91
2022/08/24 02:14:28;;;;;;;60.40;46.10;;;;;;;18.35;100.00;98053.22;105497;1282;22630;-91
2022/08/24 02:16:59;;;;;;;60.40;44.20;;;;;;;18.35;100.00;98050.73;105453;1282;23236;-90
2022/08/24 02:19:27;;;;;;;60.10;44.10;;;;;;;18.30;100.00;98052.85;105388;1282;22621;-89
2022/08/24 02:21:55;;;;;;;59.20;44.60;;;;;;;18.32;100.00;98060.92;105302;1283;22564;-89
2022/08/24 02:24:23;;;;;;;67.10;42.60;;;;;;;18.34;100.00;98069.27;105435;1282;24244;-90
2022/08/24 02:26:51;;;;;;;60.10;41.70;;;;;;;18.34;100.00;98067.70;105283;1285;22720;-90
2022/08/24 02:29:19;;;;;;;57.30;43.10;;;;;;;18.37;100.00;98069.02;105367;1282;23972;-89
2022/08/24 02:31:47;;;;;;;62.40;43.80;;;;;;;18.38;100.00;98067.19;105380;1282;22548;-86
2022/08/24 02:34:16;;;;;;;57.50;41.60;;;;;;;18.41;100.00;98071.45;105441;1282;22699;-91
2022/08/24 02:36:44;;;;;;;64.20;44.20;;;;;;;18.42;100.00;98070.16;105460;1282;22608;-90
2022/08/24 02:39:12;;;;;;;66.80;42.00;;;;;;;18.42;100.00;98071.83;105471;1282;22560;-88
2022/08/24 02:41:40;;;;;;;62.20;43.40;;;;;;;18.46;100.00;98069.35;105556;1282;22744;-92
2022/08/24 02:44:08;;;;;;;61.10;44.30;;;;;;;18.51;100.00;98073.00;105664;1283;22590;-88
2022/08/24 02:46:36;;;;;;;65.10;43.80;;;;;;;18.54;100.00;98079.81;105938;1282;22634;-91
2022/08/24 02:49:07;;;;;;;66.20;42.70;;;;;;;18.56;100.00;98078.30;105584;1282;22681;-89
2022/08/24 02:51:44;;;;;;;77.90;44.60;;;;;;;18.58;100.00;98071.58;105648;1282;22532;-93
2022/08/24 02:54:20;;;;;;;67.10;46.70;;;;;;;18.58;100.00;98071.81;105889;1282;25330;-91
2022/08/24 02:56:51;;;;;;;66.10;44.80;;;;;;;18.55;100.00;98071.80;105531;1282;22678;-91
2022/08/24 02:59:21;;;;;;;71.80;44.90;;;;;;;18.53;100.00;98077.73;105519;1280;22570;-89
2022/08/24 03:01:49;;;;;;;61.90;41.50;;;;;;;18.54;100.00;98078.95;105139;1282;24497;-88
2022/08/24 03:04:19;;;;;;;65.20;43.90;;;;;;;18.56;100.00;98081.48;105310;1284;24384;-90
2022/08/24 03:06:48;;;;;;;62.90;42.90;;;;;;;18.56;100.00;98086.27;105472;1282;22724;-90
2022/08/24 03:09:16;;;;;;;69.00;40.00;;;;;;;18.55;100.00;98093.46;105444;1282;25501;-88
2022/08/24 03:11:44;;;;;;;58.20;43.80;;;;;;;18.57;100.00;98096.19;105155;1282;22541;-86
2022/08/24 03:14:14;;;;;;;69.00;43.10;;;;;;;18.60;100.00;98093.15;105320;1282;25256;-88
2022/08/24 03:16:44;;;;;;;56.60;38.30;;;;;;;18.64;100.00;98095.96;105403;1282;24670;-88
2022/08/24 03:19:14;;;;;;;56.80;37.00;;;;;;;18.67;100.00;98098.09;105436;1282;24344;-86
2022/08/24 03:21:42;;;;;;;47.80;34.70;;;;;;;18.70;100.00;98102.08;105462;1283;25481;-85
2022/08/24 03:24:11;;;;;;;49.90;34.10;;;;;;;18.73;100.00;98104.27;105433;1282;22545;-88
2022/08/24 03:26:39;;;;;;;46.40;34.10;;;;;;;18.71;100.00;98101.34;105417;1282;25367;-86
2022/08/24 03:29:13;;;;;;;48.60;36.60;;;;;;;18.72;100.00;98099.40;105477;1282;23368;-87
2022/08/24 03:31:43;;;;;;;47.50;33.20;;;;;;;18.75;100.00;98097.95;105348;1282;24404;-86
2022/08/24 03:34:12;;;;;;;50.80;34.90;;;;;;;18.76;100.00;98097.61;105324;1282;22998;-86
2022/08/24 03:36:45;;;;;;;49.70;36.30;;;;;;;18.75;100.00;98094.76;105488;1282;22563;-86
2022/08/24 03:39:15;;;;;;;47.50;36.90;;;;;;;18.72;100.00;98092.94;105433;1282;25368;-85
2022/08/24 03:41:43;;;;;;;46.80;34.70;;;;;;;18.69;100.00;98089.19;105314;1283;24112;-86
2022/08/24 03:44:11;;;;;;;47.30;34.50;;;;;;;18.70;100.00;98089.20;105367;1282;25249;-89
2022/08/24 03:46:40;;;;;;;47.90;33.80;;;;;;;18.69;100.00;98087.77;105403;1282;24219;-88
2022/08/24 03:49:08;;;;;;;41.60;32.50;;;;;;;18.68;100.00;98084.77;105452;1282;22668;-88
2022/08/24 03:51:37;;;;;;;44.00;32.10;;;;;;;18.63;100.00;98084.42;105462;1282;24120;-86
2022/08/24 03:54:08;;;;;;;33.90;27.80;;;;;;;18.63;100.00;98082.52;105521;1282;25482;-89
2022/08/24 03:56:37;;;;;;;31.60;27.00;;;;;;;18.63;100.00;98080.83;105512;1282;25562;-87
2022/08/24 03:59:08;;;;;;;38.00;27.20;;;;;;;18.59;100.00;98086.19;105299;1284;22551;-87
2022/08/24 04:01:39;;;;;;;36.60;29.30;;;;;;;18.63;100.00;98090.04;105395;1282;22630;-86
2022/08/24 04:04:08;;;;;;;30.50;26.60;;;;;;;18.68;100.00;98095.32;105438;1282;22543;-88
2022/08/24 04:06:43;;;;;;;31.90;28.50;;;;;;;18.74;100.00;98094.42;105491;1282;22775;-87
2022/08/24 04:09:11;;;;;;;;;;;;;;;18.75;100.00;98094.52;105486;1283;24269;-89
2022/08/24 04:11:44;;;;;;;28.70;24.40;;;;;;;18.72;100.00;98093.94;105427;1282;25406;-87
2022/08/24 04:14:15;;;;;;;32.00;26.80;;;;;;;18.70;100.00;98098.81;105441;1282;24419;-89
2022/08/24 04:17:20;;;;;;;28.50;24.90;;;;;;;18.74;100.00;98099.02;105329;1282;24289;-89
2022/08/24 04:19:58;;;;;;;30.50;24.40;;;;;;;18.71;100.00;98101.02;105393;1282;22592;-88
2022/08/24 04:22:32;;;;;;;27.40;23.10;;;;;;;18.72;100.00;98100.11;105367;1282;23946;-90
2022/08/24 04:25:04;;;;;;;30.30;25.90;;;;;;;18.72;100.00;98095.05;105497;1282;24114;-87
2022/08/24 04:27:39;;;;;;;28.20;23.80;;;;;;;18.74;100.00;98095.61;105478;1282;25375;-88
2022/08/24 04:30:09;;;;;;;30.30;26.30;;;;;;;18.74;100.00;98094.19;105574;1283;24409;-86
2022/08/24 04:33:12;;;;;;;28.10;25.10;;;;;;;18.74;100.00;98094.66;105346;1282;22565;-86
2022/08/24 04:35:44;;;;;;;30.70;24.90;;;;;;;18.74;100.00;98093.95;105346;1282;25619;-86
2022/08/24 04:38:14;;;;;;;32.50;26.80;;;;;;;18.75;100.00;98092.89;105551;1283;23972;-87
2022/08/24 04:40:50;;;;;;;33.30;26.70;;;;;;;18.76;100.00;98096.75;105439;1283;22663;-86
2022/08/24 04:43:18;;;;;;;26.90;24.10;;;;;;;18.75;100.00;98094.77;105429;1283;22552;-86
2022/08/24 04:45:47;;;;;;;31.50;25.10;;;;;;;18.76;100.00;98096.88;105440;1282;25583;-87
2022/08/24 04:48:16;;;;;;;31.30;25.90;;;;;;;18.78;100.00;98096.48;105487;1283;24220;-86
2022/08/24 04:50:44;;;;;;;33.10;24.80;;;;;;;18.78;100.00;98095.86;105531;1283;25407;-84
2022/08/24 04:53:14;;;;;;;27.90;24.90;;;;;;;18.76;100.00;98095.09;105427;1282;22546;-84
2022/08/24 04:55:48;;;;;;;30.50;26.10;;;;;;;18.75;100.00;98088.77;105263;1284;26662;-86
2022/08/24 04:58:17;;;;;;;33.80;27.40;;;;;;;18.73;100.00;98087.72;105424;1282;25381;-86
2022/08/24 05:00:46;;;;;;;36.50;29.20;;;;;;;18.72;100.00;98081.18;105704;1282;22661;-87
2022/08/24 05:03:15;;;;;;;35.20;28.50;;;;;;;18.74;100.00;98079.98;105541;1282;24233;-86
2022/08/24 05:05:49;;;;;;;38.40;28.30;;;;;;;18.75;100.00;98078.63;105455;1282;23332;-86
2022/08/24 05:08:19;;;;;;;36.10;27.90;;;;;;;18.71;100.00;98081.39;105416;1283;22605;-86
2022/08/24 05:10:49;;;;;;;35.20;29.60;;;;;;;18.70;100.00;98082.24;105481;1282;24323;-84
2022/08/24 05:13:18;;;;;;;31.10;26.60;;;;;;;18.68;100.00;98081.34;105386;1282;25251;-85
2022/08/24 05:15:47;;;;;;;29.60;26.40;;;;;;;18.68;100.00;98084.71;105476;1282;22720;-86
2022/08/24 05:18:17;;;;;;;29.50;26.30;;;;;;;18.71;100.00;98083.31;105344;1282;22541;-86
2022/08/24 05:20:46;;;;;;;29.50;24.90;;;;;;;18.76;100.00;98088.85;105407;1282;22553;-87
2022/08/24 05:23:15;;;;;;;30.60;26.40;;;;;;;18.77;100.00;98088.20;105504;1283;24242;-87
2022/08/24 05:25:42;;;;;;;32.40;26.10;;;;;;;18.80;100.00;98086.88;105351;1283;24294;-87
2022/08/24 05:28:11;;;;;;;27.40;24.30;;;;;;;18.84;100.00;98091.19;105301;1284;22547;-87
2022/08/24 05:30:45;;;;;;;28.40;25.30;;;;;;;18.89;100.00;98091.31;105510;1284;23530;-85
2022/08/24 05:33:17;;;;;;;29.60;25.70;;;;;;;18.93;100.00;98090.09;105544;1284;24203;-86
2022/08/24 05:35:46;;;;;;;28.30;25.10;;;;;;;18.96;100.00;98085.82;105771;1282;23423;-86
2022/08/24 05:38:14;;;;;;;27.80;24.80;;;;;;;18.97;100.00;98086.16;105626;1284;23374;-85
2022/08/24 05:40:42;;;;;;;27.00;24.10;;;;;;;18.99;100.00;98088.39;105742;1284;22914;-87
2022/08/24 05:43:10;;;;;;;35.00;26.50;;;;;;;19.03;100.00;98090.77;105675;1282;22702;-89
2022/08/24 05:45:40;;;;;;;29.90;25.80;;;;;;;19.05;100.00;98090.58;105748;1284;22739;-89
2022/08/24 05:48:10;;;;;;;27.50;24.50;;;;;;;19.15;100.00;98097.40;105883;1282;25331;-90
2022/08/24 05:50:57;;;;;;;28.90;25.90;;;;;;;19.21;100.00;98097.62;105865;1283;25487;-89
2022/08/24 05:53:29;;;;;;;27.40;24.30;;;;;;;19.22;100.00;98101.80;106043;1283;24204;-92
2022/08/24 05:56:07;;;;;;;29.20;25.80;;;;;;;19.24;100.00;98099.27;106340;1282;22553;-89
2022/08/24 05:58:37;;;;;;;28.90;25.90;;;;;;;19.30;100.00;98098.72;106254;1282;23938;-88
2022/08/24 06:01:13;;;;;;;27.30;24.20;;;;;;;19.36;100.00;98101.61;108024;1282;22510;-83
2022/08/24 06:03:44;;;;;;;26.70;23.50;;;;;;;19.38;100.00;98097.84;108319;1282;22594;-87
2022/08/24 06:06:17;;;;;;;28.20;24.10;;;;;;;19.40;100.00;98097.17;108185;1282;25361;-83
2022/08/24 06:08:49;;;;;;;27.90;23.10;;;;;;;19.44;100.00;98102.52;108204;1282;22734;-83
2022/08/24 06:11:26;;;;;;;27.50;24.50;;;;;;;19.44;100.00;98104.77;108019;1284;22573;-82
2022/08/24 06:14:04;;;;;;;23.70;20.90;;;;;;;19.48;100.00;98109.96;107349;1282;23347;-86
2022/08/24 06:16:36;;;;;;;24.80;22.10;;;;;;;19.58;100.00;98108.78;107879;1284;22575;-86
2022/08/24 06:19:05;;;;;;;25.90;23.10;;;;;;;19.66;100.00;98112.44;108303;1284;22568;-87
2022/08/24 06:21:34;;;;;;;25.50;21.90;;;;;;;19.72;100.00;98113.48;107814;1284;23047;-87
2022/08/24 06:24:04;;;;;;;26.30;21.90;;;;;;;19.76;100.00;98112.86;106542;1284;23542;-86
2022/08/24 06:29:22;;;;;;;25.20;21.40;;;;;;;19.79;100.00;98117.85;108628;1282;22551;-85
2022/08/24 06:31:55;;;;;;;21.80;19.60;;;;;;;19.86;100.00;98121.45;108167;1284;22732;-86
2022/08/24 06:34:27;;;;;;;19.50;17.50;;;;;;;19.98;100.00;98126.42;108126;1283;22667;-86
2022/08/24 06:36:56;;;;;;;22.20;18.20;;;;;;;20.21;100.00;98132.19;108516;1282;22561;-85
2022/08/24 06:39:28;;;;;;;26.30;18.90;;;;;;;20.44;100.00;98132.30;108088;1282;23240;-86
2022/08/24 06:41:57;;;;;;;25.10;20.50;;;;;;;20.55;100.00;98131.61;108227;1283;22547;-87
2022/08/24 06:44:32;;;;;;;26.30;23.50;;;;;;;20.58;100.00;98134.69;108026;1284;22816;-87
2022/08/24 06:47:14;;;;;;;25.40;22.70;;;;;;;20.45;100.00;98138.59;108308;1282;25901;-87
2022/08/24 06:49:42;;;;;;;25.40;22.90;;;;;;;20.35;100.00;98141.27;107951;1284;24058;-88
2022/08/24 06:52:11;;;;;;;24.40;21.80;;;;;;;20.31;100.00;98141.27;107545;1284;25449;-87
2022/08/24 06:55:06;;;;;;;26.20;22.50;;;;;;;20.33;100.00;98139.58;105712;1283;24306;-87
2022/08/24 06:57:34;;;;;;;26.40;23.50;;;;;;;20.41;100.00;98139.73;105670;1282;22667;-88
2022/08/24 07:00:05;;;;;;;25.30;22.30;;;;;;;20.45;100.00;98135.27;105562;1284;22705;-87
2022/08/24 07:02:33;;;;;;;27.40;23.50;;;;;;;20.44;100.00;98128.38;105646;1282;24230;-86
2022/08/24 07:05:01;;;;;;;25.50;22.20;;;;;;;20.37;100.00;98127.77;105409;1284;25255;-88
2022/08/24 07:07:56;;;;;;;25.60;22.50;;;;;;;20.29;100.00;98123.29;105420;1283;22561;-88
2022/08/24 07:10:27;;;;;;;29.00;23.00;;;;;;;20.25;100.00;98122.73;105731;1284;22561;-87
2022/08/24 07:12:56;;;;;;;28.40;23.90;;;;;;;20.26;100.00;98122.52;105639;1284;22558;-88
2022/08/24 07:15:25;;;;;;;36.40;24.30;;;;;;;20.28;100.00;98123.27;105843;1283;22535;-86
2022/08/24 07:18:10;;;;;;;31.80;24.60;;;;;;;20.32;100.00;98129.30;105791;1284;24409;-87
2022/08/24 07:20:41;;;;;;;25.90;23.30;;;;;;;20.37;100.00;98130.05;105811;1284;22541;-89
2022/08/24 07:23:33;;;;;;;35.30;23.90;;;;;;;20.40;100.00;98133.33;105588;1284;23950;-86
2022/08/24 07:26:14;;;;;;;32.90;25.70;;;;;;;20.43;100.00;98137.90;105911;1284;25261;-87
2022/08/24 07:29:03;;;;;;;31.40;24.90;;;;;;;20.45;100.00;98141.70;106270;1282;22644;-92
2022/08/24 07:31:38;;;;;;;29.30;23.80;;;;;;;20.50;100.00;98146.19;105734;1284;25424;-89
2022/08/24 07:34:29;;;;;;;28.60;21.90;;;;;;;20.58;100.00;98149.84;105845;1284;23875;-90
2022/08/24 07:36:59;;;;;;;30.90;22.70;;;;;;;20.70;100.00;98152.83;105982;1283;22572;-89
2022/08/24 07:39:29;;;;;;;27.70;21.80;;;;;;;20.79;100.00;98159.74;105499;1284;25314;-87
2022/08/24 07:41:58;;;;;;;24.00;20.90;;;;;;;20.90;100.00;98158.33;105568;1283;24673;-89
2022/08/24 07:44:42;;;;;;;30.70;22.90;;;;;;;21.09;100.00;98160.33;105538;1283;24117;-88
2022/08/24 07:47:10;;;;;;;25.20;21.00;;;;;;;21.19;100.00;98159.44;105617;1284;24302;-85
2022/08/24 07:49:59;;;;;;;23.90;20.90;;;;;;;21.27;100.00;98159.74;105558;1283;24252;-86
2022/08/24 07:52:27;;;;;;;32.90;23.40;;;;;;;21.38;100.00;98162.39;105425;1287;22704;-87
2022/08/24 07:54:55;;;;;;;34.80;23.60;;;;;;;21.43;100.00;98159.77;105435;1284;24261;-88
2022/08/24 07:57:24;;;;;;;27.80;22.70;;;;;;;21.42;100.00;98163.17;105536;1284;25438;-87
2022/08/24 07:59:54;;;;;;;31.10;22.10;;;;;;;21.43;100.00;98163.67;105404;1284;22638;-89
2022/08/24 08:02:22;;;;;;;30.20;19.30;;;;;;;21.47;100.00;98162.96;105464;1284;24342;-88
2022/08/24 08:04:56;;;;;;;29.10;19.20;;;;;;;21.47;100.00;98169.46;105395;1284;25359;-87
2022/08/24 08:07:25;;;;;;;28.60;19.00;;;;;;;21.43;100.00;98167.98;105473;1282;22648;-87
2022/08/24 08:09:54;;;;;;;30.40;18.70;;;;;;;21.47;100.00;98173.45;105621;1284;25292;-87
2022/08/24 08:12:22;;;;;;;28.90;19.90;;;;;;;21.56;100.00;98177.92;105299;1286;22572;-88
2022/08/24 08:14:56;;;;;;;24.40;16.50;;;;;;;21.61;100.00;98175.48;105698;1283;23973;-86
2022/08/24 08:17:24;;;;;;;30.60;20.70;;;;;;;21.66;100.00;98176.61;105478;1282;24293;-86
2022/08/24 08:19:53;;;;;;;31.30;22.50;;;;;;;21.66;99.75;98182.33;105456;1284;24252;-89
2022/08/24 08:25:28;;;;;;;27.70;24.50;;;;;;;21.68;100.00;98182.38;105123;1283;23210;-87
2022/08/24 08:27:57;;;;;;;27.90;22.70;;;;;;;21.68;99.10;98182.27;105490;1282;23939;-88
2022/08/24 08:30:40;;;;;;;29.60;26.00;;;;;;;21.62;98.89;98183.59;105518;1283;25514;-88
2022/08/24 08:33:09;;;;;;;31.30;24.30;;;;;;;21.67;99.18;98186.98;105940;1282;23446;-85
2022/08/24 08:35:38;;;;;;;36.30;25.70;;;;;;;21.73;99.37;98189.42;105460;1282;22868;-85
2022/08/24 08:38:07;;;;;;;28.10;23.90;;;;;;;21.78;98.96;98190.84;105528;1282;24494;-88
2022/08/24 08:41:01;;;;;;;28.40;24.80;;;;;;;21.81;98.97;98186.66;105391;1282;22562;-87
2022/08/24 08:43:59;;;;;;;32.50;26.20;;;;;;;21.91;99.19;98186.51;105533;1284;22640;-85
2022/08/24 08:46:59;;;;;;;29.80;25.10;;;;;;;22.02;99.40;98188.10;105431;1284;24278;-85
2022/08/24 08:49:43;;;;;;;31.20;25.30;;;;;;;22.07;98.26;98182.38;105535;1282;25349;-85
2022/08/24 08:53:00;;;;;;;31.70;25.20;;;;;;;22.12;97.86;98181.52;105410;1282;24316;-86
2022/08/24 08:55:38;;;;;;;30.40;25.80;;;;;;;22.12;97.57;98178.38;105434;1283;25430;-85
2022/08/24 08:58:20;;;;;;;30.80;22.70;;;;;;;22.12;97.39;98180.58;105497;1283;24870;-87
2022/08/24 09:01:01;;;;;;;;;;;;;;;22.09;97.21;98179.44;105422;1284;22684;-84
2022/08/24 09:04:03;;;;;;;30.80;19.60;;;;;;;22.12;97.53;98176.58;105558;1283;22661;-85
2022/08/24 09:07:07;;;;;;;33.70;23.80;;;;;;;22.11;97.01;98183.15;105484;1282;24003;-85
2022/08/24 09:10:17;;;;;;;36.30;24.60;;;;;;;22.08;96.38;98185.31;104693;1290;22775;-85
2022/08/24 09:13:06;;;;;;;30.10;24.30;;;;;;;22.07;96.99;98189.44;104411;1294;22642;-85
2022/08/24 09:15:53;;;;;;;32.30;23.10;;;;;;;22.06;96.39;98191.22;104416;1293;22628;-85
2022/08/24 09:18:40;;;;;;;30.70;21.60;;;;;;;22.03;96.35;98190.40;104537;1292;22692;-83
2022/08/24 09:21:17;;;;;;;28.20;20.30;;;;;;;22.04;96.29;98186.98;104444;1294;24248;-86
2022/08/24 09:24:04;;;;;;;38.90;20.90;;;;;;;22.05;95.87;98185.09;104512;1293;22551;-85
2022/08/24 09:26:57;;;;;;;30.40;21.00;;;;;;;22.03;95.54;98184.75;104479;1293;24425;-86
2022/08/24 09:29:52;;;;;;;31.10;22.20;;;;;;;21.97;94.49;98183.48;104555;1293;25516;-86
2022/08/24 09:32:46;;;;;;;31.90;22.50;;;;;;;21.99;94.48;98186.73;104492;1293;25612;-86
2022/08/24 09:35:31;;;;;;;27.40;16.80;;;;;;;22.04;94.82;98185.09;104538;1293;24242;-86
2022/08/24 09:38:33;;;;;;;33.90;18.80;;;;;;;22.13;95.40;98181.84;104447;1293;24433;-85
2022/08/24 09:41:10;;;;;;;39.40;18.40;;;;;;;22.15;92.33;98183.38;104480;1294;22587;-87
2022/08/24 09:43:47;;;;;;;31.40;17.70;;;;;;;22.07;92.97;98187.41;104532;1290;23998;-86
2022/08/24 09:47:00;;;;;;;29.50;15.80;;;;;;;22.07;92.77;98185.44;104843;1282;22732;-86
2022/08/24 09:49:42;;;;;;;33.50;17.60;;;;;;;22.08;93.06;98188.90;104768;1290;23335;-86
2022/08/24 09:52:17;;;;;;;34.20;18.20;;;;;;;22.06;92.88;98183.46;103777;1290;1333696;-85
2022/08/24 09:55:13;;;;;;;25.60;15.80;;;;;;;22.04;92.40;98180.30;104750;1290;22586;-85
2022/08/24 09:57:53;;;;;;;35.80;15.60;;;;;;;22.05;92.02;98179.54;104677;1290;24363;-83
2022/08/24 10:00:36;;;;;;;37.10;15.30;;;;;;;22.04;92.10;98185.70;104778;1290;24278;-87
2022/08/24 10:03:13;;;;;;;32.60;14.80;;;;;;;22.06;91.39;98189.04;104822;1291;23500;-86
2022/08/24 10:05:51;;;;;;;28.20;15.70;;;;;;;22.03;91.88;98194.47;104719;1290;22689;-88
2022/08/24 10:08:47;;;;;;;32.70;17.90;;;;;;;22.03;92.15;98190.71;104924;1290;25335;-88
2022/08/24 10:11:40;;;;;;;36.20;16.40;;;;;;;22.09;92.42;98188.06;104755;1290;24110;-90
2022/08/24 10:14:45;;;;;;;38.70;16.10;;;;;;;22.15;92.57;98185.10;104742;1290;25336;-90
2022/08/24 10:17:25;;;;;;;34.80;15.40;;;;;;;22.24;91.73;98181.33;104732;1291;22554;-88
2022/08/24 10:20:22;;;;;;;36.10;17.00;;;;;;;22.35;90.86;98178.29;104810;1290;22576;-86
2022/08/24 10:23:15;;;;;;;43.50;16.50;;;;;;;22.39;90.92;98180.16;104850;1290;22664;-89
2022/08/24 10:26:05;;;;;;;42.50;16.50;;;;;;;22.46;90.37;98180.88;105143;1283;23957;-90
2022/08/24 10:29:02;;;;;;;37.70;15.30;;;;;;;22.47;90.23;98179.25;105494;1282;22619;-86
2022/08/24 10:31:41;;;;;;;32.50;18.00;;;;;;;22.58;91.00;98174.31;105849;1281;22709;-88
2022/08/24 10:34:27;;;;;;;33.30;16.90;;;;;;;22.73;90.53;98171.74;105764;1283;25323;-89
2022/08/24 10:37:08;;;;;;;37.60;17.70;;;;;;;22.74;88.81;98155.68;106044;1282;25241;-90
2022/08/24 10:40:10;;;;;;;36.40;16.10;;;;;;;22.86;88.31;98163.14;106224;1282;22559;-87
2022/08/24 10:45:59;;;;;;;36.90;15.80;;;;;;;23.47;85.69;98151.26;105486;1282;22881;-90
2022/08/24 10:48:30;;;;;;;36.70;15.00;;;;;;;23.60;84.64;98147.47;105585;1282;25241;-88
2022/08/24 10:51:49;;;;;;;43.60;17.70;;;;;;;23.74;84.96;98148.23;105616;1282;25364;-89
2022/08/24 10:54:22;;;;;;;40.70;15.70;;;;;;;23.94;84.41;98146.59;104669;1290;22561;-88
2022/08/24 10:57:22;;;;;;;42.90;16.00;;;;;;;24.16;85.49;98151.40;104631;1292;25151;-89
2022/08/24 10:59:51;;;;;;;35.40;16.10;;;;;;;24.46;84.21;98150.91;104761;1290;23627;-90
2022/08/24 11:02:35;;;;;;;49.70;17.90;;;;;;;24.65;84.85;98143.98;104788;1290;22826;-90
2022/08/24 11:05:13;;;;;;;40.40;16.00;;;;;;;24.88;82.74;98151.98;104849;1290;22878;-93
2022/08/24 11:08:03;;;;;;;43.10;15.70;;;;;;;25.08;83.15;98151.58;104786;1291;22812;-90
2022/08/24 11:10:37;;;;;;;45.70;16.70;;;;;;;25.21;80.63;98154.95;104848;1290;24334;-89
2022/08/24 11:13:21;;;;;;;40.30;15.40;;;;;;;25.30;82.02;98160.66;104726;1290;22754;-90
2022/08/24 11:15:54;;;;;;;41.50;16.20;;;;;;;25.59;83.12;98160.86;104480;1291;22601;-89
2022/08/24 11:18:23;;;;;;;35.50;15.10;;;;;;;25.82;82.64;98162.17;104873;1290;22553;-90
2022/08/24 11:20:53;;;;;;;39.10;15.30;;;;;;;26.00;82.25;98163.20;104907;1291;22619;-92
2022/08/24 11:23:28;;;;;;;46.20;16.00;;;;;;;26.12;82.41;98164.69;104884;1291;25939;-89
2022/08/24 11:26:18;;;;;;;41.90;16.20;;;;;;;26.16;80.65;98168.40;104921;1290;24340;-88
2022/08/24 11:28:59;;;;;;;41.80;15.50;;;;;;;25.97;79.64;98165.02;104816;1290;22716;-89
2022/08/24 11:31:38;;;;;;;36.30;14.50;;;;;;;25.81;79.96;98168.23;105185;1285;22734;-91
2022/08/24 11:34:08;;;;;;;46.20;16.10;;;;;;;25.80;80.65;98164.91;105652;1282;22980;-90
2022/08/24 11:36:40;;;;;;;35.20;15.70;;;;;;;25.75;78.53;98162.46;106474;1282;22600;-93
2022/08/24 11:39:27;;;;;;;46.80;15.80;;;;;;;25.66;79.46;98163.23;107652;1282;22595;-90
2022/08/24 11:42:31;;;;;;;39.00;16.60;;;;;;;25.70;79.86;98159.77;107458;1282;22651;-90
2022/08/24 11:45:11;;;;;;;40.80;16.80;;;;;;;25.74;78.64;98158.98;105594;1282;23542;-90
2022/08/24 11:47:39;;;;;;;40.10;15.50;;;;;;;25.72;78.26;98155.43;105529;1282;23363;-88
2022/08/24 11:50:26;;;;;;;39.30;15.70;;;;;;;25.73;79.18;98156.55;105547;1282;22552;-90
2022/08/24 11:53:32;;;;;;;43.70;16.20;;;;;;;25.84;79.05;98156.41;105531;1282;24177;-90